Time;durP1;ratioP1;P1;durP2;ratioP2;P2;SDS_P1;SDS_P2;PMS_P1;PMS_P2;Temp;Humidity;BMP_temperature;BMP_pressure;BME280_temperature;BME280_humidity;BME280_pressure;Samples;Min_cycle;Max_cycle;Signal;HPM_P1;HPM_P2
2021/07/24 00:01:51;;;;;;;10.73;9.73;;;;;;;21.42;61.87;156872.72;5075883;28;20465;-76
2021/07/24 00:04:26;;;;;;;13.40;10.83;;;;;;;21.53;61.54;156900.13;5080408;28;20477;-77
2021/07/24 00:07:02;;;;;;;10.53;9.53;;;;;;;21.48;61.65;156888.38;5096076;28;20433;-76
2021/07/24 00:09:37;;;;;;;14.63;11.93;;;;;;;21.47;61.49;156885.75;5095708;28;20844;-76
2021/07/24 00:12:13;;;;;;;12.10;10.90;;;;;;;21.47;61.32;156885.75;5077437;28;20437;-77
2021/07/24 00:14:50;;;;;;;12.80;10.70;;;;;;;21.46;61.77;156883.19;5096005;28;20768;-76
2021/07/24 00:17:25;;;;;;;11.43;10.23;;;;;;;21.52;61.08;156898.84;5074070;28;20959;-77
2021/07/24 00:20:01;;;;;;;10.97;9.90;;;;;;;21.49;61.47;156889.69;5086077;28;20840;-76
2021/07/24 00:22:36;;;;;;;12.73;11.40;;;;;;;21.53;61.14;156901.44;5109708;28;20448;-77
2021/07/24 00:25:12;;;;;;;11.30;10.03;;;;;;;21.48;61.35;156888.38;5077850;28;20448;-77
2021/07/24 00:27:47;;;;;;;12.73;10.80;;;;;;;21.35;62.27;156854.44;5077030;28;20544;-77
2021/07/24 00:30:25;;;;;;;12.00;10.87;;;;;;;21.28;62.18;156836.19;5085539;28;20485;-76
2021/07/24 00:33:06;;;;;;;13.83;11.40;;;;;;;21.28;62.55;156834.88;5061279;28;20848;-77
2021/07/24 00:35:42;;;;;;;11.73;10.53;;;;;;;21.28;62.47;156836.19;5095317;28;20433;-76
2021/07/24 00:38:17;;;;;;;13.40;12.10;;;;;;;21.21;62.64;156817.91;5076642;28;20540;-77
2021/07/24 00:40:56;;;;;;;13.77;11.57;;;;;;;21.20;63.16;156815.31;5060855;28;21074;-77
2021/07/24 00:43:33;;;;;;;13.10;11.43;;;;;;;21.13;62.76;156797.00;5077048;28;20469;-76
2021/07/24 00:46:10;;;;;;;12.00;10.60;;;;;;;21.24;62.91;156825.72;5061268;28;20441;-76
2021/07/24 00:48:48;;;;;;;13.17;11.87;;;;;;;21.15;63.53;156803.53;5061172;28;20488;-77
2021/07/24 00:51:47;;;;;;;12.93;11.43;;;;;;;21.04;63.97;156774.81;5076695;28;20437;-76
2021/07/24 00:54:23;;;;;;;12.63;11.43;;;;;;;21.01;64.37;156765.66;5061134;28;20456;-77
2021/07/24 00:56:58;;;;;;;13.20;11.43;;;;;;;20.85;64.83;156723.91;5076457;28;20531;-76
2021/07/24 00:59:34;;;;;;;12.63;11.17;;;;;;;20.80;65.05;156712.16;5074524;28;20444;-76
2021/07/24 01:02:12;;;;;;;14.70;12.57;;;;;;;20.81;65.15;156713.47;5076884;28;20544;-76
2021/07/24 01:04:48;;;;;;;16.10;12.27;;;;;;;20.69;65.57;156682.16;5058784;28;20516;-76
2021/07/24 01:07:24;;;;;;;12.83;11.50;;;;;;;20.64;65.85;156671.72;5045479;28;20481;-76
2021/07/24 01:10:00;;;;;;;14.90;11.80;;;;;;;20.71;65.71;156687.34;5057633;28;21003;-76
2021/07/24 01:12:37;;;;;;;16.87;12.60;;;;;;;20.76;65.39;156701.72;5057688;28;20449;-76
2021/07/24 01:15:13;;;;;;;14.30;12.80;;;;;;;20.69;65.52;156682.16;5060194;28;20800;-76
2021/07/24 01:17:54;;;;;;;13.57;10.93;;;;;;;20.66;65.53;156675.63;5076838;28;20429;-77
2021/07/24 01:20:30;;;;;;;13.00;11.70;;;;;;;20.63;65.90;156667.78;5094035;28;20441;-77
2021/07/24 01:23:07;;;;;;;12.70;11.40;;;;;;;20.70;65.68;156686.09;5060385;28;20456;-77
2021/07/24 01:25:44;;;;;;;13.90;11.80;;;;;;;20.67;65.79;156676.94;5051828;28;20799;-76
2021/07/24 01:28:24;;;;;;;14.10;12.60;;;;;;;20.57;65.67;156653.44;5042261;28;20446;-76
2021/07/24 01:31:03;;;;;;;14.80;11.87;;;;;;;20.64;65.83;156671.72;5060866;28;21022;-77
2021/07/24 01:33:40;;;;;;;12.60;11.30;;;;;;;20.65;65.48;156674.31;5043832;28;20445;-76
2021/07/24 01:36:16;;;;;;;14.53;12.23;;;;;;;20.59;65.78;156658.69;5059484;28;20862;-76
2021/07/24 01:38:54;;;;;;;12.37;11.00;;;;;;;20.55;65.91;156648.22;5057893;28;20441;-76
2021/07/24 01:41:30;;;;;;;13.00;11.60;;;;;;;20.57;66.07;156652.16;5077452;28;20445;-76
2021/07/24 01:44:07;;;;;;;17.00;12.50;;;;;;;20.59;65.96;156658.69;5057337;28;20465;-77
2021/07/24 01:46:43;;;;;;;13.80;12.40;;;;;;;20.54;66.23;156645.59;5075122;28;20448;-76
2021/07/24 01:55:22;;;;;;;12.67;11.40;;;;;;;20.62;66.12;156666.47;5055606;28;20450;-76
2021/07/24 01:58:20;;;;;;;12.97;11.67;;;;;;;20.62;66.16;156666.47;5060311;28;20445;-76
2021/07/24 02:01:05;;;;;;;13.43;12.03;;;;;;;20.60;66.00;156661.28;5055968;28;20449;-76
2021/07/24 02:03:44;;;;;;;13.70;11.83;;;;;;;20.56;66.34;156650.84;5060455;28;20866;-76
2021/07/24 02:06:36;;;;;;;14.47;12.10;;;;;;;20.63;66.29;156669.09;5059246;28;20475;-76
2021/07/24 02:09:18;;;;;;;14.17;11.97;;;;;;;20.62;66.88;156666.47;5074956;28;20461;-77
2021/07/24 02:12:00;;;;;;;13.40;12.00;;;;;;;20.60;66.72;156661.28;5059804;28;20535;-76
2021/07/24 02:14:43;;;;;;;11.93;10.73;;;;;;;20.61;66.69;156662.59;5076585;28;20414;-76
2021/07/24 02:17:30;;;;;;;13.07;11.77;;;;;;;20.59;66.85;156658.69;5075065;28;20453;-76
2021/07/24 02:20:08;;;;;;;12.23;11.00;;;;;;;20.59;66.93;156658.69;5070536;28;20438;-77
2021/07/24 02:22:44;;;;;;;11.70;10.50;;;;;;;20.57;67.09;156653.44;5043539;28;20527;-76
2021/07/24 02:25:20;;;;;;;12.27;10.97;;;;;;;20.62;66.82;156665.22;5059400;28;20460;-76
2021/07/24 02:27:58;;;;;;;13.30;12.00;;;;;;;20.62;67.16;156665.22;5075082;28;20436;-77
2021/07/24 02:30:33;;;;;;;13.03;11.70;;;;;;;20.56;67.39;156649.53;5059401;28;20469;-76
2021/07/24 02:33:09;;;;;;;13.57;11.43;;;;;;;20.50;67.69;156635.19;5064778;28;20449;-77
2021/07/24 02:35:45;;;;;;;13.10;11.43;;;;;;;20.56;67.69;156650.84;5057329;28;20912;-77
2021/07/24 02:38:30;;;;;;;19.53;11.60;;;;;;;20.61;67.23;156663.91;5056379;28;20446;-76
2021/07/24 02:41:05;;;;;;;14.30;12.40;;;;;;;20.58;67.71;156654.75;5056026;28;20894;-76
2021/07/24 02:43:43;;;;;;;14.23;11.40;;;;;;;20.59;67.69;156658.69;5042227;28;20469;-76
2021/07/24 02:46:20;;;;;;;13.67;11.40;;;;;;;20.58;67.65;156656.06;5072013;28;20931;-76
2021/07/24 02:48:58;;;;;;;13.20;11.90;;;;;;;20.51;68.20;156637.81;5075099;28;20508;-77
2021/07/24 02:51:40;;;;;;;13.07;11.70;;;;;;;20.50;68.39;156635.19;5074003;28;20453;-76
2021/07/24 02:54:17;;;;;;;12.97;11.67;;;;;;;20.50;68.56;156633.88;5070470;28;21003;-77
2021/07/24 02:56:58;;;;;;;13.30;11.90;;;;;;;20.50;68.43;156633.88;5058837;28;20456;-77
2021/07/24 02:59:35;;;;;;;13.40;12.03;;;;;;;20.51;68.26;156636.50;5060921;28;20440;-77
2021/07/24 03:02:13;;;;;;;13.60;12.20;;;;;;;20.49;68.50;156632.56;5051993;28;20453;-76
2021/07/24 03:04:49;;;;;;;14.17;12.77;;;;;;;20.44;68.97;156619.53;5074029;28;20473;-76
2021/07/24 03:07:25;;;;;;;13.00;11.73;;;;;;;20.38;69.01;156603.91;5074383;28;20946;-77
2021/07/24 03:10:00;;;;;;;15.53;14.03;;;;;;;20.35;68.99;156596.06;5071140;28;20446;-76
2021/07/24 03:12:36;;;;;;;14.10;12.70;;;;;;;20.37;69.32;156601.28;5054422;28;21092;-76
2021/07/24 03:15:13;;;;;;;13.70;12.33;;;;;;;20.34;69.05;156593.44;5056002;28;20437;-76
2021/07/24 03:17:48;;;;;;;14.53;12.10;;;;;;;20.35;69.50;156596.06;5092824;28;20462;-76
2021/07/24 03:20:24;;;;;;;13.57;12.17;;;;;;;20.31;69.57;156585.63;5091215;28;20548;-77
2021/07/24 03:23:01;;;;;;;14.80;12.60;;;;;;;20.25;69.79;156570.00;5074496;28;20539;-76
2021/07/24 03:25:36;;;;;;;13.50;11.63;;;;;;;20.27;69.79;156575.19;5078328;28;20480;-77
2021/07/24 03:28:12;;;;;;;13.53;12.13;;;;;;;20.25;69.83;156570.00;5059085;28;20452;-77
2021/07/24 03:30:49;;;;;;;14.60;12.43;;;;;;;20.23;70.04;156563.38;5076289;28;20480;-77
2021/07/24 03:33:25;;;;;;;15.87;12.37;;;;;;;20.22;69.80;156562.13;5093073;28;20877;-77
2021/07/24 03:36:00;;;;;;;14.10;12.70;;;;;;;20.26;69.61;156572.56;5094923;28;20448;-77
2021/07/24 03:38:36;;;;;;;14.93;13.03;;;;;;;20.24;69.71;156567.38;5088306;28;20820;-76
2021/07/24 03:41:11;;;;;;;13.73;12.33;;;;;;;20.14;70.13;156539.94;5073739;28;20870;-76
2021/07/24 03:43:47;;;;;;;15.00;13.43;;;;;;;20.13;70.13;156538.63;5053755;28;20442;-76
2021/07/24 03:46:26;;;;;;;16.27;13.50;;;;;;;20.19;69.85;156552.97;5076068;28;20441;-76
2021/07/24 03:49:01;;;;;;;13.80;12.30;;;;;;;20.16;69.83;156546.44;5077990;28;20532;-76
2021/07/24 03:51:36;;;;;;;14.10;12.70;;;;;;;20.23;69.58;156564.69;5057563;28;20473;-76
2021/07/24 03:54:11;;;;;;;15.00;13.03;;;;;;;20.21;70.00;156559.50;5082135;28;20850;-77
2021/07/24 03:56:47;;;;;;;13.67;10.97;;;;;;;20.24;69.51;156567.38;5062316;28;20441;-76
2021/07/24 03:59:22;;;;;;;12.90;11.30;;;;;;;20.34;69.16;156592.13;5075565;28;20818;-76
2021/07/24 04:01:59;;;;;;;13.63;12.20;;;;;;;20.39;69.38;156606.47;5079097;28;20445;-76
2021/07/24 04:04:36;;;;;;;13.40;12.03;;;;;;;20.42;69.05;156614.31;5085943;28;20813;-76
2021/07/24 04:07:13;;;;;;;13.80;12.40;;;;;;;20.42;69.64;156614.31;5076876;28;20441;-77
2021/07/24 04:09:48;;;;;;;14.30;11.93;;;;;;;20.39;70.13;156606.47;5071166;28;20444;-77
2021/07/24 04:12:24;;;;;;;12.67;11.33;;;;;;;20.41;69.82;156610.44;5061900;28;20453;-76
2021/07/24 04:15:00;;;;;;;14.33;12.87;;;;;;;20.36;70.14;156598.66;5095873;28;20409;-76
2021/07/24 04:17:37;;;;;;;13.33;12.07;;;;;;;20.41;70.16;156610.44;5076126;28;20463;-76
2021/07/24 04:20:15;;;;;;;14.10;12.70;;;;;;;20.39;70.31;156606.47;5086295;28;20432;-76
2021/07/24 04:22:51;;;;;;;13.80;12.40;;;;;;;20.41;70.11;156611.69;5077439;28;20435;-76
2021/07/24 04:25:26;;;;;;;13.77;12.33;;;;;;;20.41;70.29;156611.69;5076927;28;20468;-76
2021/07/24 04:28:02;;;;;;;14.87;12.47;;;;;;;20.37;70.66;156601.28;5076805;28;20441;-76
2021/07/24 04:30:37;;;;;;;13.80;12.40;;;;;;;20.36;70.65;156597.38;5095230;28;20473;-76
2021/07/24 04:33:14;;;;;;;16.47;13.43;;;;;;;20.35;70.75;156594.75;5095605;28;20421;-76
2021/07/24 04:35:50;;;;;;;14.00;12.60;;;;;;;20.29;71.71;156580.41;5093263;28;20441;-76
2021/07/24 04:38:25;;;;;;;14.60;13.10;;;;;;;20.26;72.46;156571.25;5073715;28;20429;-76
2021/07/24 04:41:01;;;;;;;16.43;14.57;;;;;;;20.31;72.10;156585.63;5077006;28;20551;-77
2021/07/24 04:43:37;;;;;;;13.07;11.70;;;;;;;20.30;72.28;156583.03;5077251;28;20991;-76
2021/07/24 04:46:12;;;;;;;14.20;12.73;;;;;;;20.31;72.19;156585.63;5094810;28;20473;-77
2021/07/24 04:48:49;;;;;;;13.53;12.13;;;;;;;20.33;72.41;156590.81;5061309;28;20436;-76
2021/07/24 04:51:25;;;;;;;13.80;11.70;;;;;;;20.36;72.63;156598.66;5070367;28;20462;-77
2021/07/24 04:54:03;;;;;;;13.27;12.00;;;;;;;20.39;72.54;156605.16;5074920;28;20430;-77
2021/07/24 04:56:38;;;;;;;15.33;12.50;;;;;;;20.40;72.28;156609.09;5073411;28;20446;-76
2021/07/24 04:59:14;;;;;;;14.77;13.37;;;;;;;20.42;71.92;156613.00;5076119;28;20445;-77
2021/07/24 05:01:50;;;;;;;13.77;12.47;;;;;;;20.41;72.09;156610.44;5095176;28;20433;-76
2021/07/24 05:04:27;;;;;;;14.73;13.07;;;;;;;20.39;71.92;156606.47;5089325;28;20470;-77
2021/07/24 05:07:04;;;;;;;14.00;12.50;;;;;;;20.40;71.92;156607.78;5072396;28;20828;-77
2021/07/24 05:09:39;;;;;;;13.27;11.90;;;;;;;20.35;72.54;156596.06;5072130;28;20456;-76
2021/07/24 05:12:15;;;;;;;14.60;13.20;;;;;;;20.35;72.76;156594.75;5076415;28;20448;-76
2021/07/24 05:14:50;;;;;;;13.33;12.00;;;;;;;20.31;73.04;156585.63;5076445;28;20445;-76
2021/07/24 05:17:26;;;;;;;14.73;12.67;;;;;;;20.31;73.35;156584.31;5079732;28;20445;-76
2021/07/24 05:20:03;;;;;;;13.67;12.27;;;;;;;20.30;73.91;156583.03;5069571;28;20882;-76
2021/07/24 05:22:39;;;;;;;12.73;11.40;;;;;;;20.34;73.75;156592.13;5076124;28;20935;-77
2021/07/24 05:25:14;;;;;;;16.60;12.57;;;;;;;20.49;73.25;156632.56;5093822;28;20457;-77
2021/07/24 05:27:50;;;;;;;14.50;12.27;;;;;;;20.65;72.73;156674.31;5075855;28;20445;-76
2021/07/24 05:30:26;;;;;;;13.10;11.80;;;;;;;20.94;71.87;156747.41;5092822;28;20539;-76
2021/07/24 05:33:01;;;;;;;12.27;11.07;;;;;;;21.34;69.75;156850.56;5076047;28;20531;-76
2021/07/24 05:35:38;;;;;;;14.50;13.03;;;;;;;21.88;68.31;156990.25;5056832;28;20449;-76
2021/07/24 05:38:14;;;;;;;14.70;12.27;;;;;;;22.25;66.80;157086.91;5071328;28;20449;-76
2021/07/24 05:40:51;;;;;;;16.10;14.40;;;;;;;22.20;66.43;157075.16;5067796;28;20454;-76
2021/07/24 05:43:27;;;;;;;15.10;13.47;;;;;;;22.03;67.31;157029.47;5054268;28;20448;-76
2021/07/24 05:46:02;;;;;;;15.10;12.83;;;;;;;21.59;68.35;156917.13;5075723;28;20827;-76
2021/07/24 05:48:38;;;;;;;14.07;12.60;;;;;;;21.59;69.51;156917.13;5075240;28;20453;-76
2021/07/24 05:51:15;;;;;;;14.17;12.77;;;;;;;21.78;68.39;156965.41;5073827;28;20442;-76
2021/07/24 05:53:50;;;;;;;13.80;12.10;;;;;;;22.02;69.07;157026.84;5068482;28;21030;-76
2021/07/24 05:56:26;;;;;;;14.13;12.47;;;;;;;22.28;67.85;157096.06;5075281;28;20440;-76
2021/07/24 05:59:02;;;;;;;13.63;12.33;;;;;;;22.28;67.23;157096.06;5080488;28;20448;-76
2021/07/24 06:01:37;;;;;;;14.50;11.80;;;;;;;22.54;66.58;157162.66;5074299;28;20995;-76
2021/07/24 06:04:14;;;;;;;13.63;12.30;;;;;;;22.79;66.03;157228.06;5074233;28;20946;-76
2021/07/24 06:06:50;;;;;;;13.43;12.00;;;;;;;22.77;65.33;157221.53;5067604;28;20449;-77
2021/07/24 06:09:26;;;;;;;12.90;11.60;;;;;;;22.68;65.78;157199.31;5092433;28;20845;-77
2021/07/24 06:12:02;;;;;;;13.50;12.10;;;;;;;22.62;66.55;157182.25;5075179;28;20445;-77
2021/07/24 06:14:38;;;;;;;15.07;13.60;;;;;;;22.55;66.26;157165.28;5073914;28;20441;-78
2021/07/24 06:17:14;;;;;;;12.50;11.20;;;;;;;22.42;67.26;157131.31;5082980;28;20452;-78
2021/07/24 06:19:49;;;;;;;14.00;12.60;;;;;;;22.26;70.06;157089.53;5073152;28;20520;-78
2021/07/24 06:22:26;;;;;;;13.73;12.37;;;;;;;22.01;71.55;157024.22;5074586;28;20478;-78
2021/07/24 06:25:02;;;;;;;14.07;12.67;;;;;;;21.93;71.74;157003.31;5081962;28;20983;-78
2021/07/24 06:27:38;;;;;;;15.27;13.77;;;;;;;21.83;72.09;156979.78;5073322;28;20442;-78
2021/07/24 06:30:14;;;;;;;14.63;12.80;;;;;;;21.82;71.36;156977.16;5054804;28;20465;-78
2021/07/24 06:32:50;;;;;;;13.40;12.00;;;;;;;21.93;71.81;157004.63;5056103;28;20445;-78
2021/07/24 06:35:25;;;;;;;13.90;12.47;;;;;;;22.08;70.21;157042.53;5084483;28;20437;-78
2021/07/24 06:38:02;;;;;;;13.93;12.40;;;;;;;22.11;70.54;157051.63;5060504;28;20487;-78
2021/07/24 06:40:38;;;;;;;13.37;12.07;;;;;;;22.28;70.56;157094.75;5074886;28;20441;-78
2021/07/24 06:43:13;;;;;;;14.60;12.97;;;;;;;22.51;69.89;157154.81;5071378;28;20450;-78
2021/07/24 06:45:49;;;;;;;14.20;12.60;;;;;;;22.75;68.20;157217.56;5066613;28;20481;-78
2021/07/24 06:48:24;;;;;;;13.53;12.27;;;;;;;23.08;67.18;157301.22;5073338;28;20987;-78
2021/07/24 06:51:00;;;;;;;13.70;11.83;;;;;;;23.21;65.91;157335.19;5081866;28;20465;-78
2021/07/24 06:53:37;;;;;;;14.23;12.60;;;;;;;23.16;65.77;157323.44;5067183;28;20536;-78
2021/07/24 06:56:12;;;;;;;15.37;12.47;;;;;;;23.13;66.21;157315.59;5069482;28;20975;-78
2021/07/24 06:58:48;;;;;;;16.17;12.13;;;;;;;23.18;65.57;157327.34;5070208;28;20452;-78
2021/07/24 07:01:23;;;;;;;14.00;12.60;;;;;;;23.13;65.24;157314.28;5089002;28;20453;-78
2021/07/24 07:03:58;;;;;;;13.37;12.00;;;;;;;23.29;65.02;157356.09;5055102;28;20449;-78
2021/07/24 07:06:34;;;;;;;15.10;13.50;;;;;;;23.34;67.36;157369.16;5061599;28;20583;-78
2021/07/24 07:09:11;;;;;;;13.83;12.47;;;;;;;23.32;69.31;157363.94;5058951;28;20963;-78
2021/07/24 07:11:46;;;;;;;13.57;11.90;;;;;;;23.17;68.26;157324.69;5071757;28;20461;-78
2021/07/24 07:14:22;;;;;;;14.50;13.20;;;;;;;22.89;69.36;157254.16;5090262;28;20440;-78
2021/07/24 07:16:57;;;;;;;14.20;12.83;;;;;;;22.81;71.57;157233.25;5070409;28;20445;-78
2021/07/24 07:19:35;;;;;;;13.10;11.90;;;;;;;22.87;73.32;157248.97;5073331;28;20504;-78
2021/07/24 07:22:10;;;;;;;15.07;13.60;;;;;;;22.67;72.51;157196.66;5058881;28;20429;-77
2021/07/24 07:24:47;;;;;;;14.10;12.70;;;;;;;22.71;72.13;157205.84;5051060;28;20460;-77
2021/07/24 07:27:23;;;;;;;13.70;12.30;;;;;;;22.68;72.50;157199.31;5083693;28;20445;-77
2021/07/24 07:29:58;;;;;;;14.90;13.40;;;;;;;22.74;72.73;157214.94;5070087;28;20472;-77
2021/07/24 07:32:34;;;;;;;14.87;13.37;;;;;;;22.71;70.85;157207.16;5070221;28;20487;-78
2021/07/24 07:35:11;;;;;;;15.37;13.83;;;;;;;22.78;70.32;157225.41;5095799;28;20911;-77
2021/07/24 07:37:48;;;;;;;15.40;13.90;;;;;;;22.69;71.42;157201.88;5085451;28;20456;-77
2021/07/24 07:40:26;;;;;;;18.27;15.23;;;;;;;22.60;72.90;157177.03;5064827;28;20445;-77
2021/07/24 07:43:14;;;;;;;17.30;15.47;;;;;;;22.45;73.47;157140.44;5073503;28;20870;-77
2021/07/24 07:45:54;;;;;;;17.73;15.83;;;;;;;22.40;73.11;157127.38;5073190;28;20477;-77
2021/07/24 07:48:33;;;;;;;16.07;14.10;;;;;;;22.30;73.18;157099.94;5058928;28;20482;-77
2021/07/24 07:51:10;;;;;;;17.97;15.87;;;;;;;22.22;74.15;157080.38;5059197;28;20476;-77
2021/07/24 07:53:45;;;;;;;18.53;14.80;;;;;;;22.22;74.30;157080.38;5085484;28;20477;-77
2021/07/24 07:56:22;;;;;;;16.07;13.90;;;;;;;22.29;74.17;157097.38;5091803;28;20528;-84
2021/07/24 07:58:58;;;;;;;17.67;13.23;;;;;;;22.34;73.35;157110.44;5072166;28;20543;-84
2021/07/24 08:01:35;;;;;;;14.90;13.40;;;;;;;22.26;73.33;157089.53;5075240;28;20451;-84
2021/07/24 08:04:10;;;;;;;13.87;12.47;;;;;;;22.16;72.78;157063.41;5077726;28;20437;-84
2021/07/24 08:06:46;;;;;;;14.53;13.03;;;;;;;22.29;72.39;157097.38;5075035;28;20871;-85
2021/07/24 08:09:22;;;;;;;14.43;12.97;;;;;;;22.33;72.72;157107.78;5069686;28;20441;-84
2021/07/24 08:11:59;;;;;;;14.00;12.50;;;;;;;22.32;72.44;157105.16;5063223;28;20445;-83
2021/07/24 08:14:35;;;;;;;13.83;12.53;;;;;;;22.25;72.70;157086.91;5063181;28;20449;-83
2021/07/24 08:17:11;;;;;;;14.23;12.73;;;;;;;22.11;72.70;157051.63;5059933;28;20520;-84
2021/07/24 08:19:47;;;;;;;14.50;13.00;;;;;;;22.10;72.40;157047.72;5058171;28;20434;-83
2021/07/24 08:22:23;;;;;;;14.30;12.80;;;;;;;21.94;75.61;157005.94;5044030;28;20453;-84
2021/07/24 08:24:58;;;;;;;14.03;12.60;;;;;;;21.83;75.05;156979.78;5078270;28;20422;-84
2021/07/24 08:27:35;;;;;;;15.40;13.90;;;;;;;21.84;77.79;156982.38;5074578;28;20457;-84
2021/07/24 08:30:36;;;;;;;15.03;13.30;;;;;;;21.90;75.71;156996.78;5097657;28;20510;-85
2021/07/24 08:33:14;;;;;;;15.73;14.03;;;;;;;21.92;75.88;157000.72;5097778;28;20536;-85
2021/07/24 08:35:50;;;;;;;16.60;14.80;;;;;;;21.78;75.34;156966.75;5099172;28;20537;-83
2021/07/24 08:38:25;;;;;;;13.70;12.33;;;;;;;21.76;75.80;156961.47;5085553;28;20442;-84
2021/07/24 08:41:02;;;;;;;15.53;14.00;;;;;;;21.90;75.97;156995.47;5079688;28;20477;-76
2021/07/24 08:43:39;;;;;;;13.73;12.43;;;;;;;22.06;74.16;157037.25;5095039;28;20441;-83
2021/07/24 08:46:14;;;;;;;16.33;13.40;;;;;;;22.19;74.08;157072.53;5097642;28;20472;-84
2021/07/24 08:48:50;;;;;;;15.40;13.90;;;;;;;22.18;74.38;157069.94;5080596;28;20470;-84
2021/07/24 08:51:25;;;;;;;15.03;13.30;;;;;;;22.53;73.04;157158.75;5091477;28;20865;-84
2021/07/24 08:54:01;;;;;;;15.83;13.97;;;;;;;22.82;71.47;157234.59;5083676;28;20442;-83
2021/07/24 08:56:44;;;;;;;15.67;13.03;;;;;;;23.23;71.47;157340.41;5067492;28;20453;-78
2021/07/24 08:59:22;;;;;;;14.33;12.50;;;;;;;23.59;69.56;157435.84;5060863;28;20453;-78
2021/07/24 09:01:57;;;;;;;14.40;12.63;;;;;;;23.84;67.27;157499.94;5076463;28;20492;-78
2021/07/24 09:04:33;;;;;;;13.67;12.20;;;;;;;24.21;66.26;157595.44;5075475;28;20469;-78
2021/07/24 09:07:10;;;;;;;15.13;13.70;;;;;;;24.49;64.47;157667.38;5053661;28;20504;-76
2021/07/24 09:09:46;;;;;;;15.83;13.67;;;;;;;24.78;64.19;157744.56;5094790;28;20471;-78
2021/07/24 09:12:22;;;;;;;15.50;14.00;;;;;;;24.68;63.86;157718.38;5074808;28;20456;-77
2021/07/24 09:14:59;;;;;;;14.83;13.33;;;;;;;24.91;63.80;157777.31;5072794;28;20446;-77
2021/07/24 09:17:35;;;;;;;15.60;14.03;;;;;;;25.33;63.46;157885.91;5074753;28;20828;-77
2021/07/24 09:20:11;;;;;;;15.03;13.43;;;;;;;25.94;61.99;158044.34;5082026;28;20437;-77
2021/07/24 09:22:47;;;;;;;14.53;13.03;;;;;;;26.28;59.48;158132.13;5074482;28;20441;-77
2021/07/24 09:25:23;;;;;;;14.23;12.83;;;;;;;26.29;59.68;158134.75;5060791;28;20446;-76
2021/07/24 09:28:11;;;;;;;15.07;13.53;;;;;;;26.58;57.71;158212.00;5071214;28;20435;-77
2021/07/24 09:30:48;;;;;;;16.13;14.30;;;;;;;26.84;56.40;158277.56;5072012;28;20461;-77
2021/07/24 09:33:23;;;;;;;15.17;13.67;;;;;;;27.16;55.72;158361.41;5077599;28;20440;-77
2021/07/24 09:35:59;;;;;;;14.67;13.17;;;;;;;27.48;55.23;158445.28;5075850;28;20564;-78
2021/07/24 09:38:39;;;;;;;15.23;13.63;;;;;;;27.50;54.66;158450.56;5095338;28;20437;-77
2021/07/24 09:41:18;;;;;;;14.20;12.90;;;;;;;27.85;54.54;158539.69;5080593;28;20456;-78
2021/07/24 09:43:59;;;;;;;14.80;13.40;;;;;;;27.93;54.33;158560.66;5097985;28;20778;-77
2021/07/24 09:46:39;;;;;;;14.93;13.37;;;;;;;27.87;54.37;158544.91;5075620;28;20469;-78
2021/07/24 09:49:15;;;;;;;16.33;14.30;;;;;;;27.91;55.16;158556.69;5056268;28;20496;-78
2021/07/24 09:51:54;;;;;;;13.57;12.13;;;;;;;28.30;53.71;158657.72;5055384;28;20438;-77
2021/07/24 09:54:29;;;;;;;15.10;13.43;;;;;;;28.40;53.76;158683.94;5072455;28;20452;-78
2021/07/24 09:57:05;;;;;;;14.00;12.67;;;;;;;28.45;52.46;158695.72;5056694;28;20461;-77
2021/07/24 09:59:41;;;;;;;14.17;12.80;;;;;;;28.35;52.84;158670.84;5055803;28;20468;-78
2021/07/24 10:02:31;;;;;;;13.67;12.40;;;;;;;28.33;53.43;158665.56;5056553;28;20465;-78
2021/07/24 10:05:07;;;;;;;12.20;11.10;;;;;;;28.47;51.34;158702.28;5073508;28;20423;-77
2021/07/24 10:07:43;;;;;;;13.07;11.80;;;;;;;28.36;51.46;158673.44;5076107;28;20473;-78
2021/07/24 10:10:19;;;;;;;13.80;11.90;;;;;;;28.20;51.74;158631.47;5091414;28;20449;-78
2021/07/24 10:12:54;;;;;;;14.97;13.30;;;;;;;27.69;53.38;158499.06;5057963;28;20441;-76
2021/07/24 10:15:39;;;;;;;15.10;11.93;;;;;;;27.81;54.01;158530.50;5066689;28;20924;-77
2021/07/24 10:18:16;;;;;;;13.63;12.10;;;;;;;27.62;54.90;158480.69;5092811;28;20916;-77
2021/07/24 10:20:52;;;;;;;15.20;13.60;;;;;;;27.33;54.88;158404.63;5091222;28;20516;-77
2021/07/24 10:23:28;;;;;;;13.63;12.43;;;;;;;27.47;55.50;158441.38;5070908;28;20445;-77
2021/07/24 10:26:10;;;;;;;14.03;12.63;;;;;;;27.46;54.81;158440.06;5070911;28;20478;-75
2021/07/24 10:28:54;;;;;;;14.13;12.83;;;;;;;27.49;55.84;158447.94;5088037;28;20437;-76
2021/07/24 10:31:40;;;;;;;12.67;11.47;;;;;;;27.33;53.15;158405.94;5066699;28;20918;-76
2021/07/24 10:34:22;;;;;;;15.47;11.83;;;;;;;27.30;53.63;158396.78;5042266;28;20462;-76
2021/07/24 10:36:57;;;;;;;12.50;11.20;;;;;;;27.84;52.87;158537.03;5070721;28;20508;-76
2021/07/24 10:39:33;;;;;;;11.60;10.50;;;;;;;27.56;52.04;158465.00;5041763;28;20477;-75
2021/07/24 10:42:09;;;;;;;13.60;12.17;;;;;;;27.53;52.26;158457.13;5071422;28;20446;-77
2021/07/24 10:44:46;;;;;;;14.23;11.77;;;;;;;27.28;53.51;158392.84;5054094;28;20482;-78
2021/07/24 10:47:22;;;;;;;13.10;11.80;;;;;;;27.12;53.61;158350.91;5055575;28;20476;-77
2021/07/24 10:50:00;;;;;;;15.10;11.80;;;;;;;26.86;55.45;158282.78;5046452;28;20450;-77
2021/07/24 10:53:10;;;;;;;12.40;11.10;;;;;;;26.97;54.78;158312.94;5068434;28;20438;-77
2021/07/24 10:55:51;;;;;;;17.20;12.37;;;;;;;27.00;55.11;158319.47;5061468;28;20442;-78
2021/07/24 10:58:30;;;;;;;13.43;11.87;;;;;;;27.11;53.64;158348.31;5071170;28;20442;-77
2021/07/24 11:01:07;;;;;;;12.10;10.90;;;;;;;27.35;55.09;158409.91;5053975;28;20445;-77
2021/07/24 11:03:46;;;;;;;14.70;11.10;;;;;;;27.60;53.87;158476.75;5033471;28;20426;-75
2021/07/24 11:06:30;;;;;;;16.27;10.30;;;;;;;27.83;52.15;158534.44;5037430;28;20474;-77
2021/07/24 11:09:17;;;;;;;11.53;10.43;;;;;;;27.95;52.07;158565.91;5055879;28;20442;-76
2021/07/24 11:12:07;;;;;;;11.20;10.10;;;;;;;28.02;53.44;158584.28;5069428;28;20453;-77
2021/07/24 11:14:49;;;;;;;11.00;9.90;;;;;;;28.04;51.30;158590.84;5034551;28;20492;-77
2021/07/24 11:17:25;;;;;;;13.10;8.60;;;;;;;28.10;49.06;158606.56;5051821;28;20545;-77
2021/07/24 11:20:40;;;;;;;8.00;7.00;;;;;;;28.29;48.14;158655.09;5036285;28;20490;-77
2021/07/24 11:23:17;;;;;;;8.40;7.60;;;;;;;28.20;48.46;158631.47;5035593;28;20463;-76
2021/07/24 11:26:00;;;;;;;9.17;7.93;;;;;;;28.24;47.18;158643.31;5033209;28;20447;-77
2021/07/24 11:28:36;;;;;;;8.90;7.60;;;;;;;28.22;48.06;158636.75;5070159;28;20457;-77
2021/07/24 11:31:11;;;;;;;8.03;7.23;;;;;;;28.30;48.81;158659.00;5072011;28;20516;-76
2021/07/24 11:33:48;;;;;;;8.80;7.90;;;;;;;28.12;48.78;158610.50;5073159;28;20431;-76
2021/07/24 11:36:24;;;;;;;8.50;7.60;;;;;;;27.98;47.85;158573.75;5071720;28;20458;-77
2021/07/24 11:39:01;;;;;;;8.73;7.83;;;;;;;27.97;48.85;158572.44;5074745;28;20444;-77
2021/07/24 11:41:36;;;;;;;9.43;7.60;;;;;;;27.88;48.61;158548.81;5092442;28;20445;-76
2021/07/24 11:44:12;;;;;;;8.10;7.30;;;;;;;27.82;48.65;158531.81;5077616;28;20856;-77
2021/07/24 11:47:04;;;;;;;8.37;7.47;;;;;;;27.73;49.16;158509.53;5111069;28;20479;-76
2021/07/24 11:49:43;;;;;;;10.67;9.10;;;;;;;27.59;49.52;158472.81;5062734;28;20524;-76
2021/07/24 11:52:22;;;;;;;8.27;7.47;;;;;;;27.53;50.12;158457.13;5094243;28;20456;-76
2021/07/24 11:54:59;;;;;;;8.20;7.40;;;;;;;27.45;50.10;158437.47;5077727;28;20448;-76
2021/07/24 11:57:34;;;;;;;9.70;8.30;;;;;;;27.55;50.04;158463.66;5087046;28;20441;-76
2021/07/24 12:00:11;;;;;;;8.67;7.87;;;;;;;27.66;51.16;158492.50;5067915;28;20535;-76
2021/07/24 12:02:47;;;;;;;9.10;8.20;;;;;;;27.88;49.57;158547.56;5077420;28;21071;-76